sensor_id;sensor_type;location;lat;lon;timestamp;P1;durP1;ratioP1;P2;durP2;ratioP2
36291;SDS011;22327;51.208;6.418;2024-03-02T00:02:17;2.08;;;0.88;;
36291;SDS011;22327;51.208;6.418;2024-03-02T00:05:21;0.75;;;0.60;;
36291;SDS011;22327;51.208;6.418;2024-03-02T00:08:23;1.77;;;0.60;;
36291;SDS011;22327;51.208;6.418;2024-03-02T00:11:25;1.70;;;0.80;;
36291;SDS011;22327;51.208;6.418;2024-03-02T00:14:30;0.98;;;0.47;;
36291;SDS011;22327;51.208;6.418;2024-03-02T00:17:31;1.10;;;0.70;;
36291;SDS011;22327;51.208;6.418;2024-03-02T00:20:31;2.40;;;0.80;;
36291;SDS011;22327;51.208;6.418;2024-03-02T00:23:32;2.00;;;0.60;;
36291;SDS011;22327;51.208;6.418;2024-03-02T00:26:34;3.40;;;0.80;;
36291;SDS011;22327;51.208;6.418;2024-03-02T00:29:35;1.17;;;0.75;;
36291;SDS011;22327;51.208;6.418;2024-03-02T00:32:35;1.17;;;0.75;;
36291;SDS011;22327;51.208;6.418;2024-03-02T00:35:36;1.90;;;0.70;;
36291;SDS011;22327;51.208;6.418;2024-03-02T00:41:46;1.75;;;0.80;;
36291;SDS011;22327;51.208;6.418;2024-03-02T00:44:47;2.67;;;0.65;;
36291;SDS011;22327;51.208;6.418;2024-03-02T00:47:48;1.05;;;0.50;;
36291;SDS011;22327;51.208;6.418;2024-03-02T00:50:52;0.90;;;0.50;;
36291;SDS011;22327;51.208;6.418;2024-03-02T00:53:53;2.72;;;0.73;;
36291;SDS011;22327;51.208;6.418;2024-03-02T00:56:57;1.52;;;0.70;;
36291;SDS011;22327;51.208;6.418;2024-03-02T00:59:57;1.85;;;0.80;;
36291;SDS011;22327;51.208;6.418;2024-03-02T01:02:58;0.73;;;0.57;;
36291;SDS011;22327;51.208;6.418;2024-03-02T01:05:58;1.17;;;0.65;;
36291;SDS011;22327;51.208;6.418;2024-03-02T01:08:59;1.02;;;0.77;;
36291;SDS011;22327;51.208;6.418;2024-03-02T01:11:59;0.63;;;0.50;;
36291;SDS011;22327;51.208;6.418;2024-03-02T01:15:00;1.10;;;0.80;;
36291;SDS011;22327;51.208;6.418;2024-03-02T01:18:01;3.08;;;0.70;;
36291;SDS011;22327;51.208;6.418;2024-03-02T01:21:01;1.83;;;0.70;;
36291;SDS011;22327;51.208;6.418;2024-03-02T01:24:02;2.10;;;0.77;;
36291;SDS011;22327;51.208;6.418;2024-03-02T01:27:03;2.03;;;0.73;;
36291;SDS011;22327;51.208;6.418;2024-03-02T01:30:04;2.80;;;0.60;;
36291;SDS011;22327;51.208;6.418;2024-03-02T01:33:06;2.42;;;0.80;;
36291;SDS011;22327;51.208;6.418;2024-03-02T01:36:06;2.47;;;0.50;;
36291;SDS011;22327;51.208;6.418;2024-03-02T01:39:08;3.28;;;1.05;;
36291;SDS011;22327;51.208;6.418;2024-03-02T01:42:09;1.52;;;0.85;;
36291;SDS011;22327;51.208;6.418;2024-03-02T01:45:10;5.60;;;0.60;;
36291;SDS011;22327;51.208;6.418;2024-03-02T01:48:11;4.68;;;0.93;;
36291;SDS011;22327;51.208;6.418;2024-03-02T01:51:11;2.63;;;1.67;;
36291;SDS011;22327;51.208;6.418;2024-03-02T01:54:12;4.05;;;0.60;;
36291;SDS011;22327;51.208;6.418;2024-03-02T01:57:12;6.72;;;1.23;;
36291;SDS011;22327;51.208;6.418;2024-03-02T02:00:13;5.85;;;0.70;;
36291;SDS011;22327;51.208;6.418;2024-03-02T02:03:14;5.07;;;0.80;;
36291;SDS011;22327;51.208;6.418;2024-03-02T02:06:15;4.25;;;0.80;;
36291;SDS011;22327;51.208;6.418;2024-03-02T02:09:15;6.93;;;0.88;;
36291;SDS011;22327;51.208;6.418;2024-03-02T02:12:18;4.20;;;0.80;;
36291;SDS011;22327;51.208;6.418;2024-03-02T02:15:25;4.28;;;0.70;;
36291;SDS011;22327;51.208;6.418;2024-03-02T02:18:26;3.30;;;0.82;;
36291;SDS011;22327;51.208;6.418;2024-03-02T02:21:27;3.90;;;0.73;;
36291;SDS011;22327;51.208;6.418;2024-03-02T02:24:28;5.32;;;0.90;;
36291;SDS011;22327;51.208;6.418;2024-03-02T02:27:28;1.17;;;0.57;;
36291;SDS011;22327;51.208;6.418;2024-03-02T02:30:31;3.92;;;0.70;;
36291;SDS011;22327;51.208;6.418;2024-03-02T02:33:32;0.95;;;0.60;;
36291;SDS011;22327;51.208;6.418;2024-03-02T02:36:33;1.58;;;0.52;;
36291;SDS011;22327;51.208;6.418;2024-03-02T02:39:34;2.70;;;0.65;;
36291;SDS011;22327;51.208;6.418;2024-03-02T02:42:34;1.08;;;0.50;;
36291;SDS011;22327;51.208;6.418;2024-03-02T02:45:35;1.25;;;0.50;;
36291;SDS011;22327;51.208;6.418;2024-03-02T02:48:35;2.20;;;0.47;;
36291;SDS011;22327;51.208;6.418;2024-03-02T02:51:36;0.43;;;0.20;;
36291;SDS011;22327;51.208;6.418;2024-03-02T02:54:37;0.70;;;0.30;;
36291;SDS011;22327;51.208;6.418;2024-03-02T02:57:41;0.22;;;0.20;;
36291;SDS011;22327;51.208;6.418;2024-03-02T03:00:43;0.47;;;0.20;;
36291;SDS011;22327;51.208;6.418;2024-03-02T03:03:44;0.52;;;0.20;;
36291;SDS011;22327;51.208;6.418;2024-03-02T03:06:45;1.13;;;0.40;;
36291;SDS011;22327;51.208;6.418;2024-03-02T03:09:46;1.45;;;0.20;;
36291;SDS011;22327;51.208;6.418;2024-03-02T03:12:46;0.60;;;0.30;;
36291;SDS011;22327;51.208;6.418;2024-03-02T03:15:47;0.77;;;0.43;;
36291;SDS011;22327;51.208;6.418;2024-03-02T03:18:47;0.20;;;0.10;;
36291;SDS011;22327;51.208;6.418;2024-03-02T03:21:51;0.98;;;0.10;;
36291;SDS011;22327;51.208;6.418;2024-03-02T03:24:52;0.60;;;0.10;;
36291;SDS011;22327;51.208;6.418;2024-03-02T03:27:53;0.20;;;0.10;;
36291;SDS011;22327;51.208;6.418;2024-03-02T03:30:53;0.80;;;0.10;;
36291;SDS011;22327;51.208;6.418;2024-03-02T03:33:54;0.17;;;0.10;;
36291;SDS011;22327;51.208;6.418;2024-03-02T03:36:54;0.25;;;0.17;;
36291;SDS011;22327;51.208;6.418;2024-03-02T03:39:55;0.10;;;0.10;;
36291;SDS011;22327;51.208;6.418;2024-03-02T03:42:55;0.10;;;0.05;;
36291;SDS011;22327;51.208;6.418;2024-03-02T03:45:56;0.43;;;0.20;;
36291;SDS011;22327;51.208;6.418;2024-03-02T03:48:57;0.95;;;0.10;;
36291;SDS011;22327;51.208;6.418;2024-03-02T03:51:57;0.10;;;0.10;;
36291;SDS011;22327;51.208;6.418;2024-03-02T03:54:58;0.30;;;0.20;;
36291;SDS011;22327;51.208;6.418;2024-03-02T03:57:59;0.43;;;0.30;;
36291;SDS011;22327;51.208;6.418;2024-03-02T04:00:59;0.40;;;0.25;;
36291;SDS011;22327;51.208;6.418;2024-03-02T04:04:00;0.20;;;0.13;;
36291;SDS011;22327;51.208;6.418;2024-03-02T04:07:03;1.07;;;0.40;;
36291;SDS011;22327;51.208;6.418;2024-03-02T04:10:04;1.23;;;0.20;;
36291;SDS011;22327;51.208;6.418;2024-03-02T04:13:07;0.40;;;0.20;;
36291;SDS011;22327;51.208;6.418;2024-03-02T04:16:08;0.68;;;0.17;;
36291;SDS011;22327;51.208;6.418;2024-03-02T04:19:08;0.63;;;0.20;;
36291;SDS011;22327;51.208;6.418;2024-03-02T04:22:09;0.95;;;0.30;;
36291;SDS011;22327;51.208;6.418;2024-03-02T04:25:09;0.30;;;0.20;;
36291;SDS011;22327;51.208;6.418;2024-03-02T04:28:10;0.63;;;0.28;;
36291;SDS011;22327;51.208;6.418;2024-03-02T04:31:12;0.20;;;0.20;;
36291;SDS011;22327;51.208;6.418;2024-03-02T04:34:13;0.95;;;0.30;;
36291;SDS011;22327;51.208;6.418;2024-03-02T04:37:13;0.60;;;0.30;;
36291;SDS011;22327;51.208;6.418;2024-03-02T04:40:14;0.73;;;0.30;;
36291;SDS011;22327;51.208;6.418;2024-03-02T04:43:15;0.90;;;0.82;;
36291;SDS011;22327;51.208;6.418;2024-03-02T04:46:16;0.73;;;0.30;;
36291;SDS011;22327;51.208;6.418;2024-03-02T04:49:17;1.70;;;0.70;;
36291;SDS011;22327;51.208;6.418;2024-03-02T04:52:17;0.95;;;0.55;;
36291;SDS011;22327;51.208;6.418;2024-03-02T04:55:18;1.73;;;0.60;;
36291;SDS011;22327;51.208;6.418;2024-03-02T04:58:27;1.25;;;0.50;;
36291;SDS011;22327;51.208;6.418;2024-03-02T05:01:27;1.75;;;0.65;;
36291;SDS011;22327;51.208;6.418;2024-03-02T05:04:28;1.40;;;0.50;;
36291;SDS011;22327;51.208;6.418;2024-03-02T05:07:28;0.98;;;0.45;;
36291;SDS011;22327;51.208;6.418;2024-03-02T05:10:29;2.70;;;0.30;;
36291;SDS011;22327;51.208;6.418;2024-03-02T05:13:29;1.77;;;0.47;;
36291;SDS011;22327;51.208;6.418;2024-03-02T05:16:33;1.55;;;0.40;;
36291;SDS011;22327;51.208;6.418;2024-03-02T05:19:34;0.95;;;0.40;;
36291;SDS011;22327;51.208;6.418;2024-03-02T05:22:35;3.58;;;0.80;;
36291;SDS011;22327;51.208;6.418;2024-03-02T05:25:36;2.33;;;0.70;;
36291;SDS011;22327;51.208;6.418;2024-03-02T05:28:36;1.95;;;0.68;;
36291;SDS011;22327;51.208;6.418;2024-03-02T05:31:37;1.15;;;0.70;;
36291;SDS011;22327;51.208;6.418;2024-03-02T05:34:38;1.08;;;0.60;;
36291;SDS011;22327;51.208;6.418;2024-03-02T05:37:38;1.27;;;0.60;;
36291;SDS011;22327;51.208;6.418;2024-03-02T05:40:39;1.23;;;0.57;;
36291;SDS011;22327;51.208;6.418;2024-03-02T05:43:39;3.30;;;1.10;;
36291;SDS011;22327;51.208;6.418;2024-03-02T05:46:40;1.50;;;1.00;;
36291;SDS011;22327;51.208;6.418;2024-03-02T05:49:41;0.65;;;0.52;;
36291;SDS011;22327;51.208;6.418;2024-03-02T05:52:43;1.58;;;0.57;;
36291;SDS011;22327;51.208;6.418;2024-03-02T05:55:43;1.23;;;0.75;;
36291;SDS011;22327;51.208;6.418;2024-03-02T05:58:45;1.55;;;0.55;;
36291;SDS011;22327;51.208;6.418;2024-03-02T06:02:08;2.00;;;0.52;;
36291;SDS011;22327;51.208;6.418;2024-03-02T06:05:10;0.90;;;0.60;;
36291;SDS011;22327;51.208;6.418;2024-03-02T06:08:10;1.88;;;0.50;;
36291;SDS011;22327;51.208;6.418;2024-03-02T06:11:12;0.85;;;0.60;;
36291;SDS011;22327;51.208;6.418;2024-03-02T06:14:12;2.47;;;0.63;;
36291;SDS011;22327;51.208;6.418;2024-03-02T06:17:13;4.15;;;0.80;;
36291;SDS011;22327;51.208;6.418;2024-03-02T06:20:13;1.35;;;0.50;;
36291;SDS011;22327;51.208;6.418;2024-03-02T06:23:14;1.67;;;0.50;;
36291;SDS011;22327;51.208;6.418;2024-03-02T06:26:14;3.50;;;0.80;;
36291;SDS011;22327;51.208;6.418;2024-03-02T06:29:15;1.70;;;0.60;;
36291;SDS011;22327;51.208;6.418;2024-03-02T06:32:15;3.55;;;1.67;;
36291;SDS011;22327;51.208;6.418;2024-03-02T06:35:16;1.55;;;0.80;;
36291;SDS011;22327;51.208;6.418;2024-03-02T06:38:17;1.05;;;0.85;;
36291;SDS011;22327;51.208;6.418;2024-03-02T06:41:17;1.10;;;0.60;;
36291;SDS011;22327;51.208;6.418;2024-03-02T06:44:18;4.05;;;1.20;;
36291;SDS011;22327;51.208;6.418;2024-03-02T06:47:18;5.88;;;0.88;;
36291;SDS011;22327;51.208;6.418;2024-03-02T06:50:20;2.25;;;0.80;;
36291;SDS011;22327;51.208;6.418;2024-03-02T06:53:20;3.03;;;0.75;;
36291;SDS011;22327;51.208;6.418;2024-03-02T06:56:22;1.88;;;0.80;;
36291;SDS011;22327;51.208;6.418;2024-03-02T06:59:23;2.58;;;0.90;;
36291;SDS011;22327;51.208;6.418;2024-03-02T07:02:24;1.88;;;1.00;;
36291;SDS011;22327;51.208;6.418;2024-03-02T07:05:28;3.22;;;1.20;;
36291;SDS011;22327;51.208;6.418;2024-03-02T07:08:28;2.42;;;0.90;;
36291;SDS011;22327;51.208;6.418;2024-03-02T07:11:29;1.42;;;0.88;;
36291;SDS011;22327;51.208;6.418;2024-03-02T07:14:29;2.65;;;1.10;;
36291;SDS011;22327;51.208;6.418;2024-03-02T07:17:49;1.05;;;0.50;;
36291;SDS011;22327;51.208;6.418;2024-03-02T07:20:49;1.67;;;0.70;;
36291;SDS011;22327;51.208;6.418;2024-03-02T07:23:50;1.77;;;1.08;;
36291;SDS011;22327;51.208;6.418;2024-03-02T07:26:51;2.30;;;1.10;;
36291;SDS011;22327;51.208;6.418;2024-03-02T07:29:51;2.83;;;0.80;;
36291;SDS011;22327;51.208;6.418;2024-03-02T07:32:52;1.40;;;1.05;;
36291;SDS011;22327;51.208;6.418;2024-03-02T07:35:55;1.80;;;0.95;;
36291;SDS011;22327;51.208;6.418;2024-03-02T07:38:56;2.83;;;0.90;;
36291;SDS011;22327;51.208;6.418;2024-03-02T07:41:57;1.30;;;0.90;;
36291;SDS011;22327;51.208;6.418;2024-03-02T07:44:58;3.15;;;1.40;;
36291;SDS011;22327;51.208;6.418;2024-03-02T07:47:58;1.48;;;0.90;;
36291;SDS011;22327;51.208;6.418;2024-03-02T07:50:59;2.15;;;0.80;;
36291;SDS011;22327;51.208;6.418;2024-03-02T07:54:00;2.88;;;1.15;;
36291;SDS011;22327;51.208;6.418;2024-03-02T07:57:00;1.83;;;0.77;;
36291;SDS011;22327;51.208;6.418;2024-03-02T08:00:01;1.48;;;0.90;;
36291;SDS011;22327;51.208;6.418;2024-03-02T08:03:02;2.25;;;1.13;;
36291;SDS011;22327;51.208;6.418;2024-03-02T08:06:03;1.90;;;1.00;;
36291;SDS011;22327;51.208;6.418;2024-03-02T08:09:04;1.63;;;1.05;;
36291;SDS011;22327;51.208;6.418;2024-03-02T08:12:10;2.67;;;0.80;;
36291;SDS011;22327;51.208;6.418;2024-03-02T08:15:10;2.35;;;0.80;;
36291;SDS011;22327;51.208;6.418;2024-03-02T08:18:12;0.95;;;0.70;;
36291;SDS011;22327;51.208;6.418;2024-03-02T08:21:13;1.63;;;0.60;;
36291;SDS011;22327;51.208;6.418;2024-03-02T08:24:14;1.10;;;0.90;;
36291;SDS011;22327;51.208;6.418;2024-03-02T08:27:15;3.53;;;1.00;;
36291;SDS011;22327;51.208;6.418;2024-03-02T08:30:15;1.90;;;0.65;;
36291;SDS011;22327;51.208;6.418;2024-03-02T08:33:16;2.15;;;0.70;;
36291;SDS011;22327;51.208;6.418;2024-03-02T08:36:16;1.33;;;0.85;;
36291;SDS011;22327;51.208;6.418;2024-03-02T08:39:17;1.77;;;0.60;;
36291;SDS011;22327;51.208;6.418;2024-03-02T08:42:19;0.82;;;0.52;;
36291;SDS011;22327;51.208;6.418;2024-03-02T08:45:20;1.25;;;0.70;;
36291;SDS011;22327;51.208;6.418;2024-03-02T08:48:20;1.33;;;0.50;;
36291;SDS011;22327;51.208;6.418;2024-03-02T08:51:21;1.17;;;0.52;;
36291;SDS011;22327;51.208;6.418;2024-03-02T08:54:21;1.33;;;0.68;;
36291;SDS011;22327;51.208;6.418;2024-03-02T08:57:22;2.65;;;1.17;;
36291;SDS011;22327;51.208;6.418;2024-03-02T09:00:23;1.38;;;0.80;;
36291;SDS011;22327;51.208;6.418;2024-03-02T09:03:23;0.90;;;0.45;;
36291;SDS011;22327;51.208;6.418;2024-03-02T09:06:24;2.22;;;0.80;;
36291;SDS011;22327;51.208;6.418;2024-03-02T09:09:25;1.55;;;0.70;;
36291;SDS011;22327;51.208;6.418;2024-03-02T09:12:25;1.38;;;0.68;;
36291;SDS011;22327;51.208;6.418;2024-03-02T09:15:26;0.95;;;0.60;;
36291;SDS011;22327;51.208;6.418;2024-03-02T09:18:26;3.55;;;0.90;;
36291;SDS011;22327;51.208;6.418;2024-03-02T09:21:27;2.22;;;0.60;;
36291;SDS011;22327;51.208;6.418;2024-03-02T09:24:29;1.77;;;0.60;;
36291;SDS011;22327;51.208;6.418;2024-03-02T09:27:30;0.85;;;0.57;;
36291;SDS011;22327;51.208;6.418;2024-03-02T09:30:33;1.80;;;0.60;;
36291;SDS011;22327;51.208;6.418;2024-03-02T09:33:34;2.23;;;0.80;;
36291;SDS011;22327;51.208;6.418;2024-03-02T09:36:34;0.95;;;0.68;;
36291;SDS011;22327;51.208;6.418;2024-03-02T09:39:35;0.98;;;0.63;;
36291;SDS011;22327;51.208;6.418;2024-03-02T09:42:35;1.08;;;0.80;;
36291;SDS011;22327;51.208;6.418;2024-03-02T09:45:37;2.60;;;0.90;;
36291;SDS011;22327;51.208;6.418;2024-03-02T09:48:38;0.85;;;0.52;;
36291;SDS011;22327;51.208;6.418;2024-03-02T09:51:39;0.98;;;0.80;;
36291;SDS011;22327;51.208;6.418;2024-03-02T09:54:40;4.05;;;0.77;;
36291;SDS011;22327;51.208;6.418;2024-03-02T09:57:41;1.30;;;0.60;;
36291;SDS011;22327;51.208;6.418;2024-03-02T10:00:42;0.60;;;0.40;;
36291;SDS011;22327;51.208;6.418;2024-03-02T10:03:43;1.17;;;0.38;;
36291;SDS011;22327;51.208;6.418;2024-03-02T10:06:45;0.90;;;0.47;;
36291;SDS011;22327;51.208;6.418;2024-03-02T10:09:47;1.55;;;0.40;;
36291;SDS011;22327;51.208;6.418;2024-03-02T10:12:48;1.63;;;0.60;;
36291;SDS011;22327;51.208;6.418;2024-03-02T10:16:12;0.50;;;0.40;;
36291;SDS011;22327;51.208;6.418;2024-03-02T10:19:22;1.75;;;0.60;;
36291;SDS011;22327;51.208;6.418;2024-03-02T10:22:24;3.47;;;0.50;;
36291;SDS011;22327;51.208;6.418;2024-03-02T10:25:28;0.75;;;0.40;;
36291;SDS011;22327;51.208;6.418;2024-03-02T10:28:32;3.70;;;0.60;;
36291;SDS011;22327;51.208;6.418;2024-03-02T10:31:33;1.55;;;0.60;;
36291;SDS011;22327;51.208;6.418;2024-03-02T10:34:33;4.60;;;0.68;;
36291;SDS011;22327;51.208;6.418;2024-03-02T10:37:35;1.15;;;0.63;;
36291;SDS011;22327;51.208;6.418;2024-03-02T10:40:36;0.85;;;0.50;;
36291;SDS011;22327;51.208;6.418;2024-03-02T10:43:36;1.63;;;0.50;;
36291;SDS011;22327;51.208;6.418;2024-03-02T10:46:37;1.45;;;0.40;;
36291;SDS011;22327;51.208;6.418;2024-03-02T10:49:38;1.30;;;0.40;;
36291;SDS011;22327;51.208;6.418;2024-03-02T10:52:41;2.45;;;0.50;;
36291;SDS011;22327;51.208;6.418;2024-03-02T10:55:42;2.38;;;0.50;;
36291;SDS011;22327;51.208;6.418;2024-03-02T10:58:43;0.57;;;0.20;;
36291;SDS011;22327;51.208;6.418;2024-03-02T11:01:44;1.80;;;0.45;;
36291;SDS011;22327;51.208;6.418;2024-03-02T11:04:47;1.98;;;0.55;;
36291;SDS011;22327;51.208;6.418;2024-03-02T11:07:49;3.70;;;0.40;;
36291;SDS011;22327;51.208;6.418;2024-03-02T11:10:51;0.98;;;0.30;;
36291;SDS011;22327;51.208;6.418;2024-03-02T11:14:01;2.47;;;0.50;;
36291;SDS011;22327;51.208;6.418;2024-03-02T11:17:08;1.73;;;0.40;;
36291;SDS011;22327;51.208;6.418;2024-03-02T11:20:10;1.25;;;0.30;;
36291;SDS011;22327;51.208;6.418;2024-03-02T11:23:11;2.60;;;0.40;;
36291;SDS011;22327;51.208;6.418;2024-03-02T11:26:21;1.35;;;0.70;;
36291;SDS011;22327;51.208;6.418;2024-03-02T11:32:40;0.82;;;0.30;;
36291;SDS011;22327;51.208;6.418;2024-03-02T11:35:41;1.45;;;0.40;;
36291;SDS011;22327;51.208;6.418;2024-03-02T11:38:43;1.92;;;0.35;;
36291;SDS011;22327;51.208;6.418;2024-03-02T11:41:45;1.75;;;0.43;;
36291;SDS011;22327;51.208;6.418;2024-03-02T11:44:47;3.42;;;0.63;;
36291;SDS011;22327;51.208;6.418;2024-03-02T11:47:51;3.78;;;0.52;;
36291;SDS011;22327;51.208;6.418;2024-03-02T11:50:54;1.20;;;0.40;;
36291;SDS011;22327;51.208;6.418;2024-03-02T11:53:58;1.58;;;0.43;;
36291;SDS011;22327;51.208;6.418;2024-03-02T11:57:04;0.70;;;0.40;;
36291;SDS011;22327;51.208;6.418;2024-03-02T12:00:05;2.63;;;0.50;;
36291;SDS011;22327;51.208;6.418;2024-03-02T12:03:16;2.25;;;0.50;;
36291;SDS011;22327;51.208;6.418;2024-03-02T12:06:16;1.85;;;0.40;;
36291;SDS011;22327;51.208;6.418;2024-03-02T12:09:19;2.30;;;0.63;;
36291;SDS011;22327;51.208;6.418;2024-03-02T12:12:21;1.63;;;0.40;;
36291;SDS011;22327;51.208;6.418;2024-03-02T12:15:23;2.53;;;0.50;;
36291;SDS011;22327;51.208;6.418;2024-03-02T12:18:27;1.10;;;0.30;;
36291;SDS011;22327;51.208;6.418;2024-03-02T12:21:27;1.92;;;0.40;;
36291;SDS011;22327;51.208;6.418;2024-03-02T12:24:29;1.65;;;0.50;;
36291;SDS011;22327;51.208;6.418;2024-03-02T12:27:30;2.30;;;0.50;;
36291;SDS011;22327;51.208;6.418;2024-03-02T12:30:30;2.17;;;0.35;;
36291;SDS011;22327;51.208;6.418;2024-03-02T12:33:35;3.03;;;0.60;;
36291;SDS011;22327;51.208;6.418;2024-03-02T12:36:38;1.00;;;0.60;;
36291;SDS011;22327;51.208;6.418;2024-03-02T12:39:39;2.65;;;0.50;;
36291;SDS011;22327;51.208;6.418;2024-03-02T12:42:40;0.80;;;0.40;;
36291;SDS011;22327;51.208;6.418;2024-03-02T12:45:41;1.67;;;0.57;;
36291;SDS011;22327;51.208;6.418;2024-03-02T12:48:42;1.17;;;0.30;;
36291;SDS011;22327;51.208;6.418;2024-03-02T12:51:42;2.58;;;0.50;;
36291;SDS011;22327;51.208;6.418;2024-03-02T12:54:43;6.07;;;0.73;;
36291;SDS011;22327;51.208;6.418;2024-03-02T12:57:44;1.73;;;0.40;;
36291;SDS011;22327;51.208;6.418;2024-03-02T13:00:45;1.60;;;0.50;;
36291;SDS011;22327;51.208;6.418;2024-03-02T13:03:47;1.25;;;0.50;;
36291;SDS011;22327;51.208;6.418;2024-03-02T13:09:51;1.48;;;0.50;;
36291;SDS011;22327;51.208;6.418;2024-03-02T13:12:56;1.05;;;0.68;;
36291;SDS011;22327;51.208;6.418;2024-03-02T13:15:56;2.05;;;0.55;;
36291;SDS011;22327;51.208;6.418;2024-03-02T13:18:57;1.67;;;0.57;;
36291;SDS011;22327;51.208;6.418;2024-03-02T13:21:58;0.40;;;0.40;;
36291;SDS011;22327;51.208;6.418;2024-03-02T13:24:58;0.80;;;0.38;;
36291;SDS011;22327;51.208;6.418;2024-03-02T13:28:01;1.77;;;0.50;;
36291;SDS011;22327;51.208;6.418;2024-03-02T13:31:03;1.35;;;0.65;;
36291;SDS011;22327;51.208;6.418;2024-03-02T13:34:03;2.60;;;0.75;;
36291;SDS011;22327;51.208;6.418;2024-03-02T13:37:04;1.17;;;0.47;;
36291;SDS011;22327;51.208;6.418;2024-03-02T13:40:05;1.75;;;0.40;;
36291;SDS011;22327;51.208;6.418;2024-03-02T13:43:07;0.80;;;0.45;;
36291;SDS011;22327;51.208;6.418;2024-03-02T13:46:08;1.38;;;0.80;;
36291;SDS011;22327;51.208;6.418;2024-03-02T13:49:10;0.60;;;0.40;;
36291;SDS011;22327;51.208;6.418;2024-03-02T13:52:10;1.13;;;0.57;;
36291;SDS011;22327;51.208;6.418;2024-03-02T13:55:13;0.85;;;0.55;;
36291;SDS011;22327;51.208;6.418;2024-03-02T13:58:13;1.67;;;0.65;;
36291;SDS011;22327;51.208;6.418;2024-03-02T14:01:14;2.10;;;0.60;;
36291;SDS011;22327;51.208;6.418;2024-03-02T14:04:14;0.88;;;0.40;;
36291;SDS011;22327;51.208;6.418;2024-03-02T14:07:15;0.88;;;0.50;;
36291;SDS011;22327;51.208;6.418;2024-03-02T14:10:16;2.33;;;0.50;;
36291;SDS011;22327;51.208;6.418;2024-03-02T14:13:17;1.38;;;0.50;;
36291;SDS011;22327;51.208;6.418;2024-03-02T14:16:18;1.17;;;0.68;;
36291;SDS011;22327;51.208;6.418;2024-03-02T14:19:19;0.45;;;0.40;;
36291;SDS011;22327;51.208;6.418;2024-03-02T14:22:21;1.17;;;0.50;;
36291;SDS011;22327;51.208;6.418;2024-03-02T14:25:21;1.35;;;0.50;;
36291;SDS011;22327;51.208;6.418;2024-03-02T14:28:22;1.35;;;0.70;;
36291;SDS011;22327;51.208;6.418;2024-03-02T14:31:22;3.58;;;0.80;;
36291;SDS011;22327;51.208;6.418;2024-03-02T14:34:23;2.35;;;0.85;;
36291;SDS011;22327;51.208;6.418;2024-03-02T14:37:23;1.50;;;0.70;;
36291;SDS011;22327;51.208;6.418;2024-03-02T14:40:24;2.38;;;1.00;;
36291;SDS011;22327;51.208;6.418;2024-03-02T14:43:27;1.10;;;0.98;;
36291;SDS011;22327;51.208;6.418;2024-03-02T14:46:28;1.58;;;0.50;;
36291;SDS011;22327;51.208;6.418;2024-03-02T14:49:29;0.70;;;0.60;;
36291;SDS011;22327;51.208;6.418;2024-03-02T14:52:30;1.27;;;0.90;;
36291;SDS011;22327;51.208;6.418;2024-03-02T14:55:30;1.40;;;0.73;;
36291;SDS011;22327;51.208;6.418;2024-03-02T14:58:31;1.33;;;0.88;;
36291;SDS011;22327;51.208;6.418;2024-03-02T15:01:32;0.85;;;0.68;;
36291;SDS011;22327;51.208;6.418;2024-03-02T15:04:32;1.38;;;0.82;;
36291;SDS011;22327;51.208;6.418;2024-03-02T15:07:33;2.55;;;0.80;;
36291;SDS011;22327;51.208;6.418;2024-03-02T15:10:34;4.70;;;1.05;;
36291;SDS011;22327;51.208;6.418;2024-03-02T15:13:34;0.98;;;0.57;;
36291;SDS011;22327;51.208;6.418;2024-03-02T15:16:35;2.40;;;0.73;;
36291;SDS011;22327;51.208;6.418;2024-03-02T15:19:35;2.00;;;0.98;;
36291;SDS011;22327;51.208;6.418;2024-03-02T15:22:36;1.75;;;0.88;;
36291;SDS011;22327;51.208;6.418;2024-03-02T15:25:36;1.02;;;0.50;;
36291;SDS011;22327;51.208;6.418;2024-03-02T15:28:37;1.20;;;0.60;;
36291;SDS011;22327;51.208;6.418;2024-03-02T15:31:37;2.05;;;0.90;;
36291;SDS011;22327;51.208;6.418;2024-03-02T15:34:38;0.90;;;0.70;;
36291;SDS011;22327;51.208;6.418;2024-03-02T15:37:38;1.48;;;0.77;;
36291;SDS011;22327;51.208;6.418;2024-03-02T15:40:39;1.05;;;0.60;;
36291;SDS011;22327;51.208;6.418;2024-03-02T15:43:39;1.48;;;0.80;;
36291;SDS011;22327;51.208;6.418;2024-03-02T15:46:42;1.77;;;0.70;;
36291;SDS011;22327;51.208;6.418;2024-03-02T15:49:43;2.47;;;1.10;;
36291;SDS011;22327;51.208;6.418;2024-03-02T15:52:44;1.58;;;0.70;;
36291;SDS011;22327;51.208;6.418;2024-03-02T15:55:46;1.38;;;1.10;;
36291;SDS011;22327;51.208;6.418;2024-03-02T15:58:49;1.27;;;0.70;;
36291;SDS011;22327;51.208;6.418;2024-03-02T16:01:50;0.93;;;0.70;;
36291;SDS011;22327;51.208;6.418;2024-03-02T16:04:51;1.17;;;0.63;;
36291;SDS011;22327;51.208;6.418;2024-03-02T16:07:52;1.00;;;0.60;;
36291;SDS011;22327;51.208;6.418;2024-03-02T16:10:52;1.00;;;0.68;;
36291;SDS011;22327;51.208;6.418;2024-03-02T16:13:53;1.73;;;1.00;;
36291;SDS011;22327;51.208;6.418;2024-03-02T16:16:53;1.50;;;0.90;;
36291;SDS011;22327;51.208;6.418;2024-03-02T16:19:54;0.85;;;0.70;;
36291;SDS011;22327;51.208;6.418;2024-03-02T16:22:57;0.88;;;0.70;;
36291;SDS011;22327;51.208;6.418;2024-03-02T16:25:57;0.90;;;0.70;;
36291;SDS011;22327;51.208;6.418;2024-03-02T16:28:57;1.00;;;0.60;;
36291;SDS011;22327;51.208;6.418;2024-03-02T16:31:58;1.13;;;0.65;;
36291;SDS011;22327;51.208;6.418;2024-03-02T16:35:00;0.88;;;0.68;;
36291;SDS011;22327;51.208;6.418;2024-03-02T16:38:00;1.70;;;0.80;;
36291;SDS011;22327;51.208;6.418;2024-03-02T16:41:01;1.48;;;0.90;;
36291;SDS011;22327;51.208;6.418;2024-03-02T16:44:01;1.95;;;0.95;;
36291;SDS011;22327;51.208;6.418;2024-03-02T16:47:05;2.08;;;0.73;;
36291;SDS011;22327;51.208;6.418;2024-03-02T16:50:05;1.10;;;0.98;;
36291;SDS011;22327;51.208;6.418;2024-03-02T16:53:08;1.75;;;0.90;;
36291;SDS011;22327;51.208;6.418;2024-03-02T16:56:09;1.17;;;0.90;;
36291;SDS011;22327;51.208;6.418;2024-03-02T16:59:10;3.58;;;1.58;;
36291;SDS011;22327;51.208;6.418;2024-03-02T17:02:10;1.02;;;0.80;;
36291;SDS011;22327;51.208;6.418;2024-03-02T17:05:11;1.02;;;0.90;;
36291;SDS011;22327;51.208;6.418;2024-03-02T17:08:12;1.23;;;0.90;;
36291;SDS011;22327;51.208;6.418;2024-03-02T17:11:12;1.20;;;0.77;;
36291;SDS011;22327;51.208;6.418;2024-03-02T17:14:13;0.98;;;0.85;;
36291;SDS011;22327;51.208;6.418;2024-03-02T17:17:13;1.85;;;1.10;;
36291;SDS011;22327;51.208;6.418;2024-03-02T17:20:14;1.20;;;0.95;;
36291;SDS011;22327;51.208;6.418;2024-03-02T17:23:14;1.52;;;0.80;;
36291;SDS011;22327;51.208;6.418;2024-03-02T17:26:15;1.70;;;1.30;;
36291;SDS011;22327;51.208;6.418;2024-03-02T17:29:16;2.47;;;1.33;;
36291;SDS011;22327;51.208;6.418;2024-03-02T17:32:16;2.10;;;1.63;;
36291;SDS011;22327;51.208;6.418;2024-03-02T17:35:18;2.70;;;1.45;;
36291;SDS011;22327;51.208;6.418;2024-03-02T17:38:18;3.33;;;1.20;;
36291;SDS011;22327;51.208;6.418;2024-03-02T17:41:19;1.75;;;1.30;;
36291;SDS011;22327;51.208;6.418;2024-03-02T17:44:19;2.17;;;1.33;;
36291;SDS011;22327;51.208;6.418;2024-03-02T17:47:20;1.92;;;1.38;;
36291;SDS011;22327;51.208;6.418;2024-03-02T17:50:20;1.83;;;1.25;;
36291;SDS011;22327;51.208;6.418;2024-03-02T17:53:21;1.33;;;1.23;;
36291;SDS011;22327;51.208;6.418;2024-03-02T17:56:21;2.45;;;1.30;;
36291;SDS011;22327;51.208;6.418;2024-03-02T17:59:23;3.58;;;1.15;;
36291;SDS011;22327;51.208;6.418;2024-03-02T18:02:23;2.75;;;1.30;;
36291;SDS011;22327;51.208;6.418;2024-03-02T18:05:24;1.77;;;1.23;;
36291;SDS011;22327;51.208;6.418;2024-03-02T18:08:24;2.28;;;1.50;;
36291;SDS011;22327;51.208;6.418;2024-03-02T18:11:25;1.75;;;1.25;;
36291;SDS011;22327;51.208;6.418;2024-03-02T18:14:26;2.17;;;1.10;;
36291;SDS011;22327;51.208;6.418;2024-03-02T18:17:26;1.95;;;1.50;;
36291;SDS011;22327;51.208;6.418;2024-03-02T18:20:27;2.35;;;1.40;;
36291;SDS011;22327;51.208;6.418;2024-03-02T18:23:27;1.92;;;1.48;;